Terminal Aerodrome Forecast
Issued by NWS

Home | Current Version | Previous Version | Text Only | Print | Product List | Glossary On
Versions: 1 2 3 4 5 6 7 8 9 10 11 12 13 14 15 16 17 18 19 20 21
511
FTUS46 KPDT 221740
TAFPSC
TAF
KPSC 221740Z 2218/2318 15006KT P6SM OVC100
     FM221900 VRB05KT P6SM BKN040 OVC070
     FM230300 VRB04KT P6SM BKN080
     FM230600 22007KT P6SM -RA BKN050 OVC070=

USA.gov is the U.S. government's official web portal to all federal, state and local government web resources and services.